Terminal Aerodrome Forecast
Issued by NWS

Home | Current Version | Previous Version | Text Only | Print | Product List | Glossary Off
Versions: 1 2 3 4 5 6 7 8 9 10 11 12 13 14 15 16 17 18 19 20 21 22 23 24 25 26 27 28 29 30 31 32 33 34 35 36 37 38 39 40 41 42 43 44 45 46 47

092
FTUS41 KGYX 251428 AAA
TAFRKD
TAF AMD
KRKD 251428Z 2514/2612 21005KT 1/4SM FG OVC002
     FM251600 22006KT 3SM BR BKN003
     FM251800 16009KT P6SM -SHRA BKN005
     FM260500 24012G19KT 5SM SHRA BR OVC015
     FM260900 31010KT P6SM SCT045=

USA.gov is the U.S. government's official web portal to all federal, state and local government web resources and services.